sensor_id;sensor_type;location;lat;lon;timestamp;P1;P2;P0
46044;PMS7003;31781;54.094;13.428;2024-01-07T00:01:02;0.00;0.00;0.00
46044;PMS7003;31781;54.094;13.428;2024-01-07T00:07:05;0.00;0.00;0.00
46044;PMS7003;31781;54.094;13.428;2024-01-07T00:13:07;0.00;0.00;0.00
46044;PMS7003;31781;54.094;13.428;2024-01-07T00:19:09;0.00;0.00;0.00
46044;PMS7003;31781;54.094;13.428;2024-01-07T00:25:12;2.00;0.67;0.33
46044;PMS7003;31781;54.094;13.428;2024-01-07T00:31:13;0.00;0.00;0.00
46044;PMS7003;31781;54.094;13.428;2024-01-07T00:37:15;0.00;0.00;0.00
46044;PMS7003;31781;54.094;13.428;2024-01-07T00:43:18;0.00;0.00;0.00
46044;PMS7003;31781;54.094;13.428;2024-01-07T00:49:20;0.67;0.00;0.00
46044;PMS7003;31781;54.094;13.428;2024-01-07T00:55:21;0.00;0.00;0.00
46044;PMS7003;31781;54.094;13.428;2024-01-07T01:01:24;0.67;0.67;0.33
46044;PMS7003;31781;54.094;13.428;2024-01-07T01:07:26;0.00;0.00;0.00
46044;PMS7003;31781;54.094;13.428;2024-01-07T01:13:28;1.33;1.00;0.00
46044;PMS7003;31781;54.094;13.428;2024-01-07T01:19:31;0.00;0.00;0.00
46044;PMS7003;31781;54.094;13.428;2024-01-07T01:25:33;0.00;0.00;0.00
46044;PMS7003;31781;54.094;13.428;2024-01-07T01:31:34;1.00;1.00;1.00
46044;PMS7003;31781;54.094;13.428;2024-01-07T01:37:37;0.00;0.00;0.00
46044;PMS7003;31781;54.094;13.428;2024-01-07T01:43:39;1.00;0.00;0.00
46044;PMS7003;31781;54.094;13.428;2024-01-07T01:49:41;0.00;0.00;0.00
46044;PMS7003;31781;54.094;13.428;2024-01-07T01:55:44;0.00;0.00;0.00
46044;PMS7003;31781;54.094;13.428;2024-01-07T02:01:47;0.00;0.00;0.00
46044;PMS7003;31781;54.094;13.428;2024-01-07T02:07:49;0.00;0.00;0.00
46044;PMS7003;31781;54.094;13.428;2024-01-07T02:13:52;0.00;0.00;0.00
46044;PMS7003;31781;54.094;13.428;2024-01-07T02:19:54;0.00;0.00;0.00
46044;PMS7003;31781;54.094;13.428;2024-01-07T02:25:57;0.00;0.00;0.00
46044;PMS7003;31781;54.094;13.428;2024-01-07T02:31:59;0.00;0.00;0.00
46044;PMS7003;31781;54.094;13.428;2024-01-07T02:38:00;0.00;0.00;0.00
46044;PMS7003;31781;54.094;13.428;2024-01-07T02:44:04;0.00;0.00;0.00
46044;PMS7003;31781;54.094;13.428;2024-01-07T02:50:06;0.00;0.00;0.00
46044;PMS7003;31781;54.094;13.428;2024-01-07T02:56:08;2.00;0.00;0.00
46044;PMS7003;31781;54.094;13.428;2024-01-07T03:02:11;0.00;0.00;0.00
46044;PMS7003;31781;54.094;13.428;2024-01-07T03:08:12;0.00;0.00;0.00
46044;PMS7003;31781;54.094;13.428;2024-01-07T03:14:14;0.00;0.00;0.00
46044;PMS7003;31781;54.094;13.428;2024-01-07T03:20:17;0.00;0.00;0.00
46044;PMS7003;31781;54.094;13.428;2024-01-07T03:26:19;0.00;0.00;0.00
46044;PMS7003;31781;54.094;13.428;2024-01-07T03:32:21;0.00;0.00;0.00
46044;PMS7003;31781;54.094;13.428;2024-01-07T03:38:24;0.00;0.00;0.00
46044;PMS7003;31781;54.094;13.428;2024-01-07T03:44:26;0.00;0.00;0.00
46044;PMS7003;31781;54.094;13.428;2024-01-07T03:50:28;0.00;0.00;0.00
46044;PMS7003;31781;54.094;13.428;2024-01-07T03:56:31;0.00;0.00;0.00
46044;PMS7003;31781;54.094;13.428;2024-01-07T04:02:33;0.00;0.00;0.00
46044;PMS7003;31781;54.094;13.428;2024-01-07T04:08:35;0.00;0.00;0.00
46044;PMS7003;31781;54.094;13.428;2024-01-07T04:14:38;0.00;0.00;0.00
46044;PMS7003;31781;54.094;13.428;2024-01-07T04:20:39;0.00;0.00;0.00
46044;PMS7003;31781;54.094;13.428;2024-01-07T04:26:41;0.00;0.00;0.00
46044;PMS7003;31781;54.094;13.428;2024-01-07T04:32:44;0.00;0.00;0.00
46044;PMS7003;31781;54.094;13.428;2024-01-07T04:38:45;0.00;0.00;0.00
46044;PMS7003;31781;54.094;13.428;2024-01-07T04:44:47;0.00;0.00;0.00
46044;PMS7003;31781;54.094;13.428;2024-01-07T04:50:50;0.00;0.00;0.00
46044;PMS7003;31781;54.094;13.428;2024-01-07T04:56:51;0.00;0.00;0.00
46044;PMS7003;31781;54.094;13.428;2024-01-07T05:02:53;0.00;0.00;0.00
46044;PMS7003;31781;54.094;13.428;2024-01-07T05:08:56;0.00;0.00;0.00
46044;PMS7003;31781;54.094;13.428;2024-01-07T05:14:58;0.00;0.00;0.00
46044;PMS7003;31781;54.094;13.428;2024-01-07T05:20:59;0.00;0.00;0.00
46044;PMS7003;31781;54.094;13.428;2024-01-07T05:27:02;0.00;0.00;0.00
46044;PMS7003;31781;54.094;13.428;2024-01-07T05:33:04;0.00;0.00;0.00
46044;PMS7003;31781;54.094;13.428;2024-01-07T05:39:06;0.00;0.00;0.00
46044;PMS7003;31781;54.094;13.428;2024-01-07T05:45:09;0.00;0.00;0.00
46044;PMS7003;31781;54.094;13.428;2024-01-07T05:51:11;0.00;0.00;0.00
46044;PMS7003;31781;54.094;13.428;2024-01-07T05:57:13;0.00;0.00;0.00
46044;PMS7003;31781;54.094;13.428;2024-01-07T06:03:16;0.00;0.00;0.00
46044;PMS7003;31781;54.094;13.428;2024-01-07T06:09:18;0.00;0.00;0.00
46044;PMS7003;31781;54.094;13.428;2024-01-07T06:15:19;0.00;0.00;0.00
46044;PMS7003;31781;54.094;13.428;2024-01-07T06:21:22;0.00;0.00;0.00
46044;PMS7003;31781;54.094;13.428;2024-01-07T06:27:24;0.00;0.00;0.00
46044;PMS7003;31781;54.094;13.428;2024-01-07T06:33:25;0.00;0.00;0.00
46044;PMS7003;31781;54.094;13.428;2024-01-07T06:39:29;0.00;0.00;0.00
46044;PMS7003;31781;54.094;13.428;2024-01-07T06:45:31;0.00;0.00;0.00
46044;PMS7003;31781;54.094;13.428;2024-01-07T06:51:33;0.00;0.00;0.00
46044;PMS7003;31781;54.094;13.428;2024-01-07T06:57:36;0.00;0.00;0.00
46044;PMS7003;31781;54.094;13.428;2024-01-07T07:03:39;0.00;0.00;0.00
46044;PMS7003;31781;54.094;13.428;2024-01-07T07:09:42;0.00;0.00;0.00
46044;PMS7003;31781;54.094;13.428;2024-01-07T07:15:45;0.00;0.00;0.00
46044;PMS7003;31781;54.094;13.428;2024-01-07T07:21:46;1.67;0.00;0.00
46044;PMS7003;31781;54.094;13.428;2024-01-07T07:27:48;0.00;0.00;0.00
46044;PMS7003;31781;54.094;13.428;2024-01-07T07:33:51;0.00;0.00;0.00
46044;PMS7003;31781;54.094;13.428;2024-01-07T07:39:53;0.00;0.00;0.00
46044;PMS7003;31781;54.094;13.428;2024-01-07T07:45:54;0.00;0.00;0.00
46044;PMS7003;31781;54.094;13.428;2024-01-07T07:51:57;0.00;0.00;0.00
46044;PMS7003;31781;54.094;13.428;2024-01-07T07:57:59;0.00;0.00;0.00
46044;PMS7003;31781;54.094;13.428;2024-01-07T08:04:00;0.00;0.00;0.00
46044;PMS7003;31781;54.094;13.428;2024-01-07T08:10:04;1.00;0.00;0.00
46044;PMS7003;31781;54.094;13.428;2024-01-07T08:16:07;0.67;0.67;0.00
46044;PMS7003;31781;54.094;13.428;2024-01-07T08:22:09;0.00;0.00;0.00
46044;PMS7003;31781;54.094;13.428;2024-01-07T08:28:12;1.00;1.00;0.00
46044;PMS7003;31781;54.094;13.428;2024-01-07T08:34:14;0.00;0.00;0.00
46044;PMS7003;31781;54.094;13.428;2024-01-07T08:40:15;0.00;0.00;0.00
46044;PMS7003;31781;54.094;13.428;2024-01-07T08:46:21;0.00;0.00;0.00
46044;PMS7003;31781;54.094;13.428;2024-01-07T08:52:23;0.00;0.00;0.00
46044;PMS7003;31781;54.094;13.428;2024-01-07T08:58:25;1.00;0.00;0.00
46044;PMS7003;31781;54.094;13.428;2024-01-07T09:04:28;0.00;0.00;0.00
46044;PMS7003;31781;54.094;13.428;2024-01-07T09:10:29;0.00;0.00;0.00
46044;PMS7003;31781;54.094;13.428;2024-01-07T09:16:31;1.00;0.00;0.00
46044;PMS7003;31781;54.094;13.428;2024-01-07T09:22:34;0.00;0.00;0.00
46044;PMS7003;31781;54.094;13.428;2024-01-07T09:28:36;0.00;0.00;0.00
46044;PMS7003;31781;54.094;13.428;2024-01-07T09:34:38;0.00;0.00;0.00
46044;PMS7003;31781;54.094;13.428;2024-01-07T09:40:41;1.00;0.00;0.00
46044;PMS7003;31781;54.094;13.428;2024-01-07T09:46:43;1.33;0.00;0.00
46044;PMS7003;31781;54.094;13.428;2024-01-07T09:52:47;0.00;0.00;0.00
46044;PMS7003;31781;54.094;13.428;2024-01-07T09:58:50;0.00;0.00;0.00
46044;PMS7003;31781;54.094;13.428;2024-01-07T10:04:53;0.00;0.00;0.00
46044;PMS7003;31781;54.094;13.428;2024-01-07T10:10:55;0.00;0.00;0.00
46044;PMS7003;31781;54.094;13.428;2024-01-07T10:16:58;0.00;0.00;0.00
46044;PMS7003;31781;54.094;13.428;2024-01-07T10:22:59;1.00;1.00;1.00
46044;PMS7003;31781;54.094;13.428;2024-01-07T10:29:02;0.00;0.00;0.00
46044;PMS7003;31781;54.094;13.428;2024-01-07T10:35:05;0.00;0.00;0.00
46044;PMS7003;31781;54.094;13.428;2024-01-07T10:41:07;0.00;0.00;0.00
46044;PMS7003;31781;54.094;13.428;2024-01-07T10:47:12;0.00;0.00;0.00
46044;PMS7003;31781;54.094;13.428;2024-01-07T10:53:20;1.00;1.00;0.00
46044;PMS7003;31781;54.094;13.428;2024-01-07T10:59:22;0.33;0.33;0.33
46044;PMS7003;31781;54.094;13.428;2024-01-07T11:05:27;2.00;0.00;0.00
46044;PMS7003;31781;54.094;13.428;2024-01-07T11:11:35;4.00;1.00;1.00
46044;PMS7003;31781;54.094;13.428;2024-01-07T11:17:40;0.00;0.00;0.00
46044;PMS7003;31781;54.094;13.428;2024-01-07T11:23:42;1.67;1.67;1.00
46044;PMS7003;31781;54.094;13.428;2024-01-07T11:29:53;1.00;1.00;1.00
46044;PMS7003;31781;54.094;13.428;2024-01-07T11:35:55;1.00;1.00;0.00
46044;PMS7003;31781;54.094;13.428;2024-01-07T11:41:58;0.67;0.00;0.00
46044;PMS7003;31781;54.094;13.428;2024-01-07T11:48:01;0.00;0.00;0.00
46044;PMS7003;31781;54.094;13.428;2024-01-07T11:54:03;0.33;0.33;0.00
46044;PMS7003;31781;54.094;13.428;2024-01-07T12:00:07;0.00;0.00;0.00
46044;PMS7003;31781;54.094;13.428;2024-01-07T12:06:10;2.00;2.00;1.00
46044;PMS7003;31781;54.094;13.428;2024-01-07T12:12:12;4.00;1.33;1.00
46044;PMS7003;31781;54.094;13.428;2024-01-07T12:18:14;1.00;1.00;0.67
46044;PMS7003;31781;54.094;13.428;2024-01-07T12:24:17;0.00;0.00;0.00
46044;PMS7003;31781;54.094;13.428;2024-01-07T12:30:19;1.00;1.00;1.00
46044;PMS7003;31781;54.094;13.428;2024-01-07T12:36:22;1.00;1.00;1.00
46044;PMS7003;31781;54.094;13.428;2024-01-07T12:42:25;1.33;1.33;1.00
46044;PMS7003;31781;54.094;13.428;2024-01-07T12:48:27;1.00;1.00;1.00
46044;PMS7003;31781;54.094;13.428;2024-01-07T12:54:29;3.00;1.00;1.00
46044;PMS7003;31781;54.094;13.428;2024-01-07T13:00:32;1.00;1.00;1.00
46044;PMS7003;31781;54.094;13.428;2024-01-07T13:06:33;1.00;1.00;1.00
46044;PMS7003;31781;54.094;13.428;2024-01-07T13:12:35;1.00;1.00;1.00
46044;PMS7003;31781;54.094;13.428;2024-01-07T13:18:50;1.00;1.00;1.00
46044;PMS7003;31781;54.094;13.428;2024-01-07T13:24:52;0.00;0.00;0.00
46044;PMS7003;31781;54.094;13.428;2024-01-07T13:30:53;1.00;1.00;0.67
46044;PMS7003;31781;54.094;13.428;2024-01-07T13:36:56;1.67;1.00;0.67
46044;PMS7003;31781;54.094;13.428;2024-01-07T13:42:58;1.00;1.00;0.67
46044;PMS7003;31781;54.094;13.428;2024-01-07T13:49:00;2.67;2.00;2.00
46044;PMS7003;31781;54.094;13.428;2024-01-07T13:55:03;0.67;0.67;0.67
46044;PMS7003;31781;54.094;13.428;2024-01-07T14:01:05;2.00;2.00;2.00
46044;PMS7003;31781;54.094;13.428;2024-01-07T14:07:07;1.00;1.00;1.00
46044;PMS7003;31781;54.094;13.428;2024-01-07T14:13:10;2.00;2.00;1.00
46044;PMS7003;31781;54.094;13.428;2024-01-07T14:19:12;1.00;1.00;1.00
46044;PMS7003;31781;54.094;13.428;2024-01-07T14:25:14;2.67;2.67;1.67
46044;PMS7003;31781;54.094;13.428;2024-01-07T14:31:17;7.00;7.00;6.33
46044;PMS7003;31781;54.094;13.428;2024-01-07T14:37:19;3.33;3.33;2.33
46044;PMS7003;31781;54.094;13.428;2024-01-07T14:43:20;2.33;2.33;2.33
46044;PMS7003;31781;54.094;13.428;2024-01-07T14:49:23;3.33;2.00;1.00
46044;PMS7003;31781;54.094;13.428;2024-01-07T14:55:25;1.00;1.00;1.00
46044;PMS7003;31781;54.094;13.428;2024-01-07T15:01:27;4.67;4.67;2.67
46044;PMS7003;31781;54.094;13.428;2024-01-07T15:07:30;4.33;4.33;2.33
46044;PMS7003;31781;54.094;13.428;2024-01-07T15:13:32;4.00;4.00;2.33
46044;PMS7003;31781;54.094;13.428;2024-01-07T15:19:34;3.67;3.67;3.00
46044;PMS7003;31781;54.094;13.428;2024-01-07T15:25:37;2.67;2.67;1.33
46044;PMS7003;31781;54.094;13.428;2024-01-07T15:31:39;1.33;1.33;1.33
46044;PMS7003;31781;54.094;13.428;2024-01-07T15:37:41;2.33;2.33;2.33
46044;PMS7003;31781;54.094;13.428;2024-01-07T15:43:44;2.67;2.33;2.33
46044;PMS7003;31781;54.094;13.428;2024-01-07T15:49:45;2.00;2.00;1.50
46044;PMS7003;31781;54.094;13.428;2024-01-07T15:55:47;2.25;2.00;2.00
46044;PMS7003;31781;54.094;13.428;2024-01-07T16:01:50;1.67;0.67;0.67
46044;PMS7003;31781;54.094;13.428;2024-01-07T16:07:52;1.00;1.00;1.00
46044;PMS7003;31781;54.094;13.428;2024-01-07T16:13:53;1.00;1.00;1.00
46044;PMS7003;31781;54.094;13.428;2024-01-07T16:19:56;0.00;0.00;0.00
46044;PMS7003;31781;54.094;13.428;2024-01-07T16:25:58;4.00;1.00;1.00
46044;PMS7003;31781;54.094;13.428;2024-01-07T16:31:59;1.00;1.00;0.50
46044;PMS7003;31781;54.094;13.428;2024-01-07T16:38:03;1.00;1.00;1.00
46044;PMS7003;31781;54.094;13.428;2024-01-07T16:44:04;8.00;5.00;2.25
46044;PMS7003;31781;54.094;13.428;2024-01-07T16:50:06;1.00;1.00;1.00
46044;PMS7003;31781;54.094;13.428;2024-01-07T16:56:12;1.75;1.75;1.00
46044;PMS7003;31781;54.094;13.428;2024-01-07T17:02:14;0.00;0.00;0.00
46044;PMS7003;31781;54.094;13.428;2024-01-07T17:08:16;2.25;2.25;1.00
46044;PMS7003;31781;54.094;13.428;2024-01-07T17:14:18;1.00;1.00;0.50
46044;PMS7003;31781;54.094;13.428;2024-01-07T17:20:20;4.00;2.25;1.00
46044;PMS7003;31781;54.094;13.428;2024-01-07T17:26:22;1.00;1.00;1.00
46044;PMS7003;31781;54.094;13.428;2024-01-07T17:32:25;1.00;1.00;1.00
46044;PMS7003;31781;54.094;13.428;2024-01-07T17:38:27;4.00;1.00;1.00
46044;PMS7003;31781;54.094;13.428;2024-01-07T17:44:29;1.00;1.00;1.00
46044;PMS7003;31781;54.094;13.428;2024-01-07T17:50:32;1.25;1.25;1.00
46044;PMS7003;31781;54.094;13.428;2024-01-07T17:56:34;2.33;2.33;1.00
46044;PMS7003;31781;54.094;13.428;2024-01-07T18:02:36;1.75;1.00;1.00
46044;PMS7003;31781;54.094;13.428;2024-01-07T18:08:39;0.75;0.75;0.75
46044;PMS7003;31781;54.094;13.428;2024-01-07T18:14:52;1.00;1.00;1.00
46044;PMS7003;31781;54.094;13.428;2024-01-07T18:20:55;1.00;1.00;0.50
46044;PMS7003;31781;54.094;13.428;2024-01-07T18:26:58;1.00;1.00;0.00
46044;PMS7003;31781;54.094;13.428;2024-01-07T18:33:00;0.75;0.75;0.75
46044;PMS7003;31781;54.094;13.428;2024-01-07T18:39:02;0.75;0.75;0.50
46044;PMS7003;31781;54.094;13.428;2024-01-07T18:45:06;1.00;1.00;1.00
46044;PMS7003;31781;54.094;13.428;2024-01-07T18:51:08;2.75;1.00;1.00
46044;PMS7003;31781;54.094;13.428;2024-01-07T18:57:10;1.00;1.00;1.00
46044;PMS7003;31781;54.094;13.428;2024-01-07T19:03:13;1.00;1.00;1.00
46044;PMS7003;31781;54.094;13.428;2024-01-07T19:09:14;2.00;2.00;1.00
46044;PMS7003;31781;54.094;13.428;2024-01-07T19:15:16;1.00;1.00;1.00
46044;PMS7003;31781;54.094;13.428;2024-01-07T19:21:19;1.00;1.00;0.75
46044;PMS7003;31781;54.094;13.428;2024-01-07T19:27:21;0.00;0.00;0.00
46044;PMS7003;31781;54.094;13.428;2024-01-07T19:33:22;1.00;1.00;1.00
46044;PMS7003;31781;54.094;13.428;2024-01-07T19:39:25;0.50;0.50;0.00
46044;PMS7003;31781;54.094;13.428;2024-01-07T19:45:27;3.33;1.00;0.67
46044;PMS7003;31781;54.094;13.428;2024-01-07T19:51:29;0.50;0.50;0.25
46044;PMS7003;31781;54.094;13.428;2024-01-07T19:57:32;0.67;0.67;0.00
46044;PMS7003;31781;54.094;13.428;2024-01-07T20:03:33;1.00;1.00;1.00
46044;PMS7003;31781;54.094;13.428;2024-01-07T20:09:36;0.50;0.50;0.25
46044;PMS7003;31781;54.094;13.428;2024-01-07T20:15:39;0.00;0.00;0.00
46044;PMS7003;31781;54.094;13.428;2024-01-07T20:21:41;0.00;0.00;0.00
46044;PMS7003;31781;54.094;13.428;2024-01-07T20:27:43;3.50;1.00;1.00
46044;PMS7003;31781;54.094;13.428;2024-01-07T20:33:46;0.00;0.00;0.00
46044;PMS7003;31781;54.094;13.428;2024-01-07T20:39:48;3.00;3.00;0.33
46044;PMS7003;31781;54.094;13.428;2024-01-07T20:45:49;0.50;0.50;0.50
46044;PMS7003;31781;54.094;13.428;2024-01-07T20:51:52;0.00;0.00;0.00
46044;PMS7003;31781;54.094;13.428;2024-01-07T20:57:54;0.25;0.25;0.25
46044;PMS7003;31781;54.094;13.428;2024-01-07T21:03:56;0.75;0.75;0.75
46044;PMS7003;31781;54.094;13.428;2024-01-07T21:10:03;1.00;1.00;1.00
46044;PMS7003;31781;54.094;13.428;2024-01-07T21:16:05;1.00;1.00;0.50
46044;PMS7003;31781;54.094;13.428;2024-01-07T21:22:08;2.25;2.25;1.00
46044;PMS7003;31781;54.094;13.428;2024-01-07T21:28:13;4.00;4.00;3.50
46044;PMS7003;31781;54.094;13.428;2024-01-07T21:34:14;4.00;4.00;3.25
46044;PMS7003;31781;54.094;13.428;2024-01-07T21:40:16;5.25;4.25;4.00
46044;PMS7003;31781;54.094;13.428;2024-01-07T21:46:20;5.75;5.75;4.00
46044;PMS7003;31781;54.094;13.428;2024-01-07T21:52:22;4.25;4.25;4.00
46044;PMS7003;31781;54.094;13.428;2024-01-07T21:58:23;8.50;4.00;3.50
46044;PMS7003;31781;54.094;13.428;2024-01-07T22:04:26;7.75;6.00;4.00
46044;PMS7003;31781;54.094;13.428;2024-01-07T22:10:28;4.50;1.00;0.25
46044;PMS7003;31781;54.094;13.428;2024-01-07T22:16:29;8.50;8.50;6.50
46044;PMS7003;31781;54.094;13.428;2024-01-07T22:22:32;5.75;5.75;3.50
46044;PMS7003;31781;54.094;13.428;2024-01-07T22:28:34;8.50;6.00;5.50
46044;PMS7003;31781;54.094;13.428;2024-01-07T22:34:36;14.25;11.50;9.00
46044;PMS7003;31781;54.094;13.428;2024-01-07T22:40:39;7.00;7.00;6.25
46044;PMS7003;31781;54.094;13.428;2024-01-07T22:46:42;8.50;7.00;6.25
46044;PMS7003;31781;54.094;13.428;2024-01-07T22:52:45;7.50;6.00;4.00
46044;PMS7003;31781;54.094;13.428;2024-01-07T22:58:48;7.00;6.50;5.00
46044;PMS7003;31781;54.094;13.428;2024-01-07T23:04:49;8.50;8.50;6.00
46044;PMS7003;31781;54.094;13.428;2024-01-07T23:10:52;6.75;6.75;4.50
46044;PMS7003;31781;54.094;13.428;2024-01-07T23:16:55;7.75;5.50;3.75
46044;PMS7003;31781;54.094;13.428;2024-01-07T23:22:56;8.50;6.25;6.00
46044;PMS7003;31781;54.094;13.428;2024-01-07T23:28:58;6.25;4.00;2.50
46044;PMS7003;31781;54.094;13.428;2024-01-07T23:35:02;10.50;7.50;6.25
46044;PMS7003;31781;54.094;13.428;2024-01-07T23:41:04;8.75;7.50;6.50
46044;PMS7003;31781;54.094;13.428;2024-01-07T23:47:07;2.50;2.50;1.00
46044;PMS7003;31781;54.094;13.428;2024-01-07T23:53:10;7.00;7.00;6.00
46044;PMS7003;31781;54.094;13.428;2024-01-07T23:59:11;11.75;9.25;7.25
